sensor_id;sensor_type;location;lat;lon;timestamp;temperature;humidity
2653;DHT22;1336;48.692;9.144;2023-02-24T06:00:44;11.60;97.20
2653;DHT22;1336;48.692;9.144;2023-02-24T06:01:38;11.60;97.20
2653;DHT22;1336;48.692;9.144;2023-02-24T06:02:30;11.60;97.20
2653;DHT22;1336;48.692;9.144;2023-02-24T06:03:27;11.60;97.20
2653;DHT22;1336;48.692;9.144;2023-02-24T06:04:23;11.60;97.20
2653;DHT22;1336;48.692;9.144;2023-02-24T06:05:28;11.60;97.20
2653;DHT22;1336;48.692;9.144;2023-02-24T06:06:19;11.60;97.20
2653;DHT22;1336;48.692;9.144;2023-02-24T06:07:15;11.60;97.20
2653;DHT22;1336;48.692;9.144;2023-02-24T06:08:08;11.60;97.20
2653;DHT22;1336;48.692;9.144;2023-02-24T06:09:02;11.60;97.20
2653;DHT22;1336;48.692;9.144;2023-02-24T06:09:57;11.60;97.20
2653;DHT22;1336;48.692;9.144;2023-02-24T06:10:49;11.60;97.20
2653;DHT22;1336;48.692;9.144;2023-02-24T06:11:42;11.60;97.20
2653;DHT22;1336;48.692;9.144;2023-02-24T06:12:34;11.60;97.20
2653;DHT22;1336;48.692;9.144;2023-02-24T06:13:25;11.60;97.20
2653;DHT22;1336;48.692;9.144;2023-02-24T06:14:17;11.60;97.20
2653;DHT22;1336;48.692;9.144;2023-02-24T06:15:08;11.50;97.20
2653;DHT22;1336;48.692;9.144;2023-02-24T06:16:02;11.50;97.20
2653;DHT22;1336;48.692;9.144;2023-02-24T06:16:52;11.50;97.20
2653;DHT22;1336;48.692;9.144;2023-02-24T06:17:44;11.50;97.20
2653;DHT22;1336;48.692;9.144;2023-02-24T06:18:35;11.50;97.20
2653;DHT22;1336;48.692;9.144;2023-02-24T06:19:27;11.50;97.20
2653;DHT22;1336;48.692;9.144;2023-02-24T06:20:22;11.50;97.20
2653;DHT22;1336;48.692;9.144;2023-02-24T06:21:16;11.50;97.20
2653;DHT22;1336;48.692;9.144;2023-02-24T06:22:11;11.50;97.20
2653;DHT22;1336;48.692;9.144;2023-02-24T06:23:03;11.50;97.20
2653;DHT22;1336;48.692;9.144;2023-02-24T06:23:54;11.50;97.20
2653;DHT22;1336;48.692;9.144;2023-02-24T06:24:48;11.50;97.20
2653;DHT22;1336;48.692;9.144;2023-02-24T06:25:39;11.50;97.20
2653;DHT22;1336;48.692;9.144;2023-02-24T06:26:32;11.50;97.20
2653;DHT22;1336;48.692;9.144;2023-02-24T06:27:26;11.50;97.20
2653;DHT22;1336;48.692;9.144;2023-02-24T06:28:17;11.50;97.20
2653;DHT22;1336;48.692;9.144;2023-02-24T06:29:12;11.50;97.20
2653;DHT22;1336;48.692;9.144;2023-02-24T06:30:06;11.50;97.20
2653;DHT22;1336;48.692;9.144;2023-02-24T06:31:03;11.50;97.20
2653;DHT22;1336;48.692;9.144;2023-02-24T06:31:56;11.50;97.20
2653;DHT22;1336;48.692;9.144;2023-02-24T06:32:47;11.50;97.20
2653;DHT22;1336;48.692;9.144;2023-02-24T06:33:41;11.50;97.20
2653;DHT22;1336;48.692;9.144;2023-02-24T06:34:32;11.50;97.20
2653;DHT22;1336;48.692;9.144;2023-02-24T06:35:23;11.50;97.20
2653;DHT22;1336;48.692;9.144;2023-02-24T06:36:14;11.50;97.20
2653;DHT22;1336;48.692;9.144;2023-02-24T06:37:07;11.50;97.20
2653;DHT22;1336;48.692;9.144;2023-02-24T06:38:00;11.50;97.20
2653;DHT22;1336;48.692;9.144;2023-02-24T06:38:52;11.50;97.20
2653;DHT22;1336;48.692;9.144;2023-02-24T06:39:43;11.50;97.20
2653;DHT22;1336;48.692;9.144;2023-02-24T06:40:34;11.50;97.20
2653;DHT22;1336;48.692;9.144;2023-02-24T06:41:27;11.50;97.20
2653;DHT22;1336;48.692;9.144;2023-02-24T06:42:19;11.50;97.20
2653;DHT22;1336;48.692;9.144;2023-02-24T06:43:09;11.50;97.20
2653;DHT22;1336;48.692;9.144;2023-02-24T06:44:01;11.50;97.20
2653;DHT22;1336;48.692;9.144;2023-02-24T06:44:52;11.50;97.20
2653;DHT22;1336;48.692;9.144;2023-02-24T06:45:44;11.50;97.20
2653;DHT22;1336;48.692;9.144;2023-02-24T06:46:36;11.50;97.20
2653;DHT22;1336;48.692;9.144;2023-02-24T06:47:28;11.50;97.20
2653;DHT22;1336;48.692;9.144;2023-02-24T06:48:18;11.50;97.20
2653;DHT22;1336;48.692;9.144;2023-02-24T06:49:12;11.50;97.20
2653;DHT22;1336;48.692;9.144;2023-02-24T06:50:03;11.50;97.20
2653;DHT22;1336;48.692;9.144;2023-02-24T06:50:56;11.50;97.20
2653;DHT22;1336;48.692;9.144;2023-02-24T06:51:46;11.60;97.20
2653;DHT22;1336;48.692;9.144;2023-02-24T06:52:40;11.60;97.20
2653;DHT22;1336;48.692;9.144;2023-02-24T06:53:33;11.60;97.20
2653;DHT22;1336;48.692;9.144;2023-02-24T06:54:26;11.60;97.20
2653;DHT22;1336;48.692;9.144;2023-02-24T06:55:19;11.60;97.20
2653;DHT22;1336;48.692;9.144;2023-02-24T06:56:17;11.60;97.20
2653;DHT22;1336;48.692;9.144;2023-02-24T06:57:09;11.60;97.20
2653;DHT22;1336;48.692;9.144;2023-02-24T06:58:02;11.60;97.20
2653;DHT22;1336;48.692;9.144;2023-02-24T06:58:55;11.60;97.20
2653;DHT22;1336;48.692;9.144;2023-02-24T06:59:48;11.60;97.20
2653;DHT22;1336;48.692;9.144;2023-02-24T07:00:40;11.60;97.20
2653;DHT22;1336;48.692;9.144;2023-02-24T07:01:37;11.60;97.20
2653;DHT22;1336;48.692;9.144;2023-02-24T07:02:36;11.60;97.20
2653;DHT22;1336;48.692;9.144;2023-02-24T07:03:28;11.60;97.20
2653;DHT22;1336;48.692;9.144;2023-02-24T07:04:28;11.60;97.20
2653;DHT22;1336;48.692;9.144;2023-02-24T07:05:25;11.60;97.20
2653;DHT22;1336;48.692;9.144;2023-02-24T07:06:16;11.60;97.20
2653;DHT22;1336;48.692;9.144;2023-02-24T07:07:10;11.60;97.20
2653;DHT22;1336;48.692;9.144;2023-02-24T07:08:05;11.60;97.20
2653;DHT22;1336;48.692;9.144;2023-02-24T07:08:58;11.60;97.20
2653;DHT22;1336;48.692;9.144;2023-02-24T07:09:49;11.70;97.20
2653;DHT22;1336;48.692;9.144;2023-02-24T07:10:42;11.70;97.20
2653;DHT22;1336;48.692;9.144;2023-02-24T07:11:34;11.70;97.20
2653;DHT22;1336;48.692;9.144;2023-02-24T07:12:25;11.70;97.20
2653;DHT22;1336;48.692;9.144;2023-02-24T07:13:17;11.80;97.20
2653;DHT22;1336;48.692;9.144;2023-02-24T07:14:09;11.80;97.20
2653;DHT22;1336;48.692;9.144;2023-02-24T07:15:03;11.70;97.20
2653;DHT22;1336;48.692;9.144;2023-02-24T07:15:54;11.80;97.20
2653;DHT22;1336;48.692;9.144;2023-02-24T07:16:48;11.80;97.20
2653;DHT22;1336;48.692;9.144;2023-02-24T07:17:43;11.70;97.20
2653;DHT22;1336;48.692;9.144;2023-02-24T07:18:36;11.70;97.20
2653;DHT22;1336;48.692;9.144;2023-02-24T07:19:30;11.70;97.20
2653;DHT22;1336;48.692;9.144;2023-02-24T07:20:22;11.70;97.20
2653;DHT22;1336;48.692;9.144;2023-02-24T07:21:16;11.70;97.20
2653;DHT22;1336;48.692;9.144;2023-02-24T07:22:12;11.70;97.20
2653;DHT22;1336;48.692;9.144;2023-02-24T07:23:06;11.70;97.20
2653;DHT22;1336;48.692;9.144;2023-02-24T07:23:59;11.80;97.20
2653;DHT22;1336;48.692;9.144;2023-02-24T07:24:53;11.80;97.20
2653;DHT22;1336;48.692;9.144;2023-02-24T07:25:49;11.80;97.20
2653;DHT22;1336;48.692;9.144;2023-02-24T07:26:41;11.80;97.20
2653;DHT22;1336;48.692;9.144;2023-02-24T07:27:35;11.80;97.20
2653;DHT22;1336;48.692;9.144;2023-02-24T07:28:26;11.80;97.20
2653;DHT22;1336;48.692;9.144;2023-02-24T07:29:18;11.80;97.20
2653;DHT22;1336;48.692;9.144;2023-02-24T07:30:10;11.80;97.20
2653;DHT22;1336;48.692;9.144;2023-02-24T07:31:03;11.90;97.20
2653;DHT22;1336;48.692;9.144;2023-02-24T07:31:57;11.90;97.20
2653;DHT22;1336;48.692;9.144;2023-02-24T07:32:52;11.90;97.20
2653;DHT22;1336;48.692;9.144;2023-02-24T07:33:45;11.90;97.20
2653;DHT22;1336;48.692;9.144;2023-02-24T07:34:37;11.90;97.20
2653;DHT22;1336;48.692;9.144;2023-02-24T07:35:29;11.90;97.20
2653;DHT22;1336;48.692;9.144;2023-02-24T07:36:21;12.00;97.20
2653;DHT22;1336;48.692;9.144;2023-02-24T07:37:13;12.00;97.20
2653;DHT22;1336;48.692;9.144;2023-02-24T07:38:04;12.00;97.20
2653;DHT22;1336;48.692;9.144;2023-02-24T07:38:57;12.00;97.20
2653;DHT22;1336;48.692;9.144;2023-02-24T07:39:49;12.00;97.20
2653;DHT22;1336;48.692;9.144;2023-02-24T07:40:39;12.00;97.20
2653;DHT22;1336;48.692;9.144;2023-02-24T07:41:31;12.00;97.20
2653;DHT22;1336;48.692;9.144;2023-02-24T07:42:22;12.00;97.20
2653;DHT22;1336;48.692;9.144;2023-02-24T07:43:13;12.00;97.20
2653;DHT22;1336;48.692;9.144;2023-02-24T07:44:05;12.00;97.20
2653;DHT22;1336;48.692;9.144;2023-02-24T07:44:58;12.00;97.20
2653;DHT22;1336;48.692;9.144;2023-02-24T07:45:49;12.00;97.20
2653;DHT22;1336;48.692;9.144;2023-02-24T07:46:42;11.90;97.20
2653;DHT22;1336;48.692;9.144;2023-02-24T07:47:34;11.90;97.20
2653;DHT22;1336;48.692;9.144;2023-02-24T07:48:26;11.90;97.20
2653;DHT22;1336;48.692;9.144;2023-02-24T07:49:19;11.90;97.20
2653;DHT22;1336;48.692;9.144;2023-02-24T07:50:12;11.90;97.20
2653;DHT22;1336;48.692;9.144;2023-02-24T07:51:08;11.90;97.20
2653;DHT22;1336;48.692;9.144;2023-02-24T07:52:01;11.90;97.20
2653;DHT22;1336;48.692;9.144;2023-02-24T07:52:51;11.90;97.20
2653;DHT22;1336;48.692;9.144;2023-02-24T07:53:46;11.90;97.20
2653;DHT22;1336;48.692;9.144;2023-02-24T07:54:37;11.90;97.20
2653;DHT22;1336;48.692;9.144;2023-02-24T07:55:29;11.90;97.20
2653;DHT22;1336;48.692;9.144;2023-02-24T07:56:21;12.00;97.20
2653;DHT22;1336;48.692;9.144;2023-02-24T07:57:16;12.00;97.20
2653;DHT22;1336;48.692;9.144;2023-02-24T07:58:08;12.00;97.20
2653;DHT22;1336;48.692;9.144;2023-02-24T07:59:02;12.00;97.20
2653;DHT22;1336;48.692;9.144;2023-02-24T07:59:57;12.00;97.20
2653;DHT22;1336;48.692;9.144;2023-02-24T08:00:49;12.00;97.20
2653;DHT22;1336;48.692;9.144;2023-02-24T08:01:49;12.00;97.20
2653;DHT22;1336;48.692;9.144;2023-02-24T08:02:42;12.00;97.20
2653;DHT22;1336;48.692;9.144;2023-02-24T08:03:33;12.00;97.20
2653;DHT22;1336;48.692;9.144;2023-02-24T08:04:29;12.00;97.20
2653;DHT22;1336;48.692;9.144;2023-02-24T08:05:22;12.00;97.20
2653;DHT22;1336;48.692;9.144;2023-02-24T08:06:13;12.10;97.20
2653;DHT22;1336;48.692;9.144;2023-02-24T08:07:06;12.00;97.20
2653;DHT22;1336;48.692;9.144;2023-02-24T08:08:03;12.10;97.20
2653;DHT22;1336;48.692;9.144;2023-02-24T08:08:55;12.10;97.20
2653;DHT22;1336;48.692;9.144;2023-02-24T08:09:49;12.10;97.20
2653;DHT22;1336;48.692;9.144;2023-02-24T08:10:55;12.10;97.20
2653;DHT22;1336;48.692;9.144;2023-02-24T08:11:55;12.00;97.20
2653;DHT22;1336;48.692;9.144;2023-02-24T08:12:46;12.00;97.20
2653;DHT22;1336;48.692;9.144;2023-02-24T08:13:38;12.00;97.20
2653;DHT22;1336;48.692;9.144;2023-02-24T08:14:29;12.00;97.20
2653;DHT22;1336;48.692;9.144;2023-02-24T08:15:25;12.00;97.20
2653;DHT22;1336;48.692;9.144;2023-02-24T08:16:23;12.00;97.20
2653;DHT22;1336;48.692;9.144;2023-02-24T08:17:15;11.90;97.20
2653;DHT22;1336;48.692;9.144;2023-02-24T08:18:10;11.90;97.20
2653;DHT22;1336;48.692;9.144;2023-02-24T08:19:03;11.90;97.20
2653;DHT22;1336;48.692;9.144;2023-02-24T08:19:54;11.90;97.20
2653;DHT22;1336;48.692;9.144;2023-02-24T08:21:11;11.90;97.20
2653;DHT22;1336;48.692;9.144;2023-02-24T08:22:04;11.90;97.20
2653;DHT22;1336;48.692;9.144;2023-02-24T08:23:08;11.90;97.20
2653;DHT22;1336;48.692;9.144;2023-02-24T08:24:00;11.90;97.20
2653;DHT22;1336;48.692;9.144;2023-02-24T08:24:53;11.80;97.20
2653;DHT22;1336;48.692;9.144;2023-02-24T08:25:45;11.80;97.20
2653;DHT22;1336;48.692;9.144;2023-02-24T08:26:36;11.80;97.20
2653;DHT22;1336;48.692;9.144;2023-02-24T08:27:35;11.80;97.20
2653;DHT22;1336;48.692;9.144;2023-02-24T08:28:28;11.80;97.20
2653;DHT22;1336;48.692;9.144;2023-02-24T08:29:20;11.80;97.20
2653;DHT22;1336;48.692;9.144;2023-02-24T08:30:11;11.80;97.20
2653;DHT22;1336;48.692;9.144;2023-02-24T08:31:12;11.80;97.20
2653;DHT22;1336;48.692;9.144;2023-02-24T08:32:03;11.80;97.20
2653;DHT22;1336;48.692;9.144;2023-02-24T08:32:55;11.80;97.20
2653;DHT22;1336;48.692;9.144;2023-02-24T08:33:48;11.80;97.20
2653;DHT22;1336;48.692;9.144;2023-02-24T08:34:39;11.90;97.20
2653;DHT22;1336;48.692;9.144;2023-02-24T08:35:36;11.90;97.20
2653;DHT22;1336;48.692;9.144;2023-02-24T08:36:28;11.90;97.20
2653;DHT22;1336;48.692;9.144;2023-02-24T08:37:18;11.90;97.20
2653;DHT22;1336;48.692;9.144;2023-02-24T08:38:13;11.90;97.20
2653;DHT22;1336;48.692;9.144;2023-02-24T08:39:04;11.90;97.20
2653;DHT22;1336;48.692;9.144;2023-02-24T08:39:56;11.90;97.20
2653;DHT22;1336;48.692;9.144;2023-02-24T08:40:49;11.90;97.20
2653;DHT22;1336;48.692;9.144;2023-02-24T08:41:41;11.90;97.20
2653;DHT22;1336;48.692;9.144;2023-02-24T08:42:34;11.90;97.20
2653;DHT22;1336;48.692;9.144;2023-02-24T08:43:28;11.90;97.20
2653;DHT22;1336;48.692;9.144;2023-02-24T08:44:22;11.90;97.20
2653;DHT22;1336;48.692;9.144;2023-02-24T08:45:16;11.90;97.20
2653;DHT22;1336;48.692;9.144;2023-02-24T08:46:15;11.90;97.20
2653;DHT22;1336;48.692;9.144;2023-02-24T08:47:08;11.90;97.20
2653;DHT22;1336;48.692;9.144;2023-02-24T08:47:59;11.90;97.20
2653;DHT22;1336;48.692;9.144;2023-02-24T08:49:04;11.90;97.20
2653;DHT22;1336;48.692;9.144;2023-02-24T08:50:00;11.90;97.20
2653;DHT22;1336;48.692;9.144;2023-02-24T08:50:52;11.90;97.20
2653;DHT22;1336;48.692;9.144;2023-02-24T08:51:46;11.90;97.20
2653;DHT22;1336;48.692;9.144;2023-02-24T08:52:37;11.90;97.20
2653;DHT22;1336;48.692;9.144;2023-02-24T08:53:29;11.90;97.20
2653;DHT22;1336;48.692;9.144;2023-02-24T08:54:22;12.00;97.20
2653;DHT22;1336;48.692;9.144;2023-02-24T08:55:16;12.00;97.20
2653;DHT22;1336;48.692;9.144;2023-02-24T08:56:14;12.00;97.20
2653;DHT22;1336;48.692;9.144;2023-02-24T08:57:13;12.10;97.20
2653;DHT22;1336;48.692;9.144;2023-02-24T08:58:07;12.10;97.20
2653;DHT22;1336;48.692;9.144;2023-02-24T08:59:02;12.20;97.20
2653;DHT22;1336;48.692;9.144;2023-02-24T08:59:55;12.20;97.20
2653;DHT22;1336;48.692;9.144;2023-02-24T09:00:47;12.20;97.20
2653;DHT22;1336;48.692;9.144;2023-02-24T09:01:42;12.30;97.20
2653;DHT22;1336;48.692;9.144;2023-02-24T09:02:43;12.30;97.20
2653;DHT22;1336;48.692;9.144;2023-02-24T09:03:34;12.30;97.20
2653;DHT22;1336;48.692;9.144;2023-02-24T09:04:27;12.40;97.20
2653;DHT22;1336;48.692;9.144;2023-02-24T09:05:18;12.40;97.20
2653;DHT22;1336;48.692;9.144;2023-02-24T09:06:10;12.40;97.20
2653;DHT22;1336;48.692;9.144;2023-02-24T09:07:00;12.40;97.20
2653;DHT22;1336;48.692;9.144;2023-02-24T09:07:56;12.30;97.20
2653;DHT22;1336;48.692;9.144;2023-02-24T09:08:47;12.30;97.20
2653;DHT22;1336;48.692;9.144;2023-02-24T09:09:38;12.30;97.20
2653;DHT22;1336;48.692;9.144;2023-02-24T09:10:31;12.40;97.20
2653;DHT22;1336;48.692;9.144;2023-02-24T09:11:23;12.40;97.20
2653;DHT22;1336;48.692;9.144;2023-02-24T09:12:14;12.50;97.20
2653;DHT22;1336;48.692;9.144;2023-02-24T09:13:13;12.60;97.20
2653;DHT22;1336;48.692;9.144;2023-02-24T09:14:04;12.80;97.20
2653;DHT22;1336;48.692;9.144;2023-02-24T09:14:57;13.00;97.20
2653;DHT22;1336;48.692;9.144;2023-02-24T09:15:50;13.10;97.20
2653;DHT22;1336;48.692;9.144;2023-02-24T09:16:43;13.30;97.20
2653;DHT22;1336;48.692;9.144;2023-02-24T09:17:51;13.40;97.20
2653;DHT22;1336;48.692;9.144;2023-02-24T09:18:56;13.50;97.20
2653;DHT22;1336;48.692;9.144;2023-02-24T09:20:04;13.50;97.20
2653;DHT22;1336;48.692;9.144;2023-02-24T09:21:45;13.60;97.20
2653;DHT22;1336;48.692;9.144;2023-02-24T09:22:56;13.60;97.20
2653;DHT22;1336;48.692;9.144;2023-02-24T09:23:50;13.80;97.20
2653;DHT22;1336;48.692;9.144;2023-02-24T09:24:42;13.90;97.20
2653;DHT22;1336;48.692;9.144;2023-02-24T09:25:38;14.10;97.20
2653;DHT22;1336;48.692;9.144;2023-02-24T09:26:34;14.40;97.20
2653;DHT22;1336;48.692;9.144;2023-02-24T09:27:32;14.60;97.20
2653;DHT22;1336;48.692;9.144;2023-02-24T09:28:24;15.00;97.20
2653;DHT22;1336;48.692;9.144;2023-02-24T09:29:16;15.40;97.20
2653;DHT22;1336;48.692;9.144;2023-02-24T09:30:25;15.70;97.20
2653;DHT22;1336;48.692;9.144;2023-02-24T09:31:26;16.10;97.20
2653;DHT22;1336;48.692;9.144;2023-02-24T09:32:29;16.50;97.20
2653;DHT22;1336;48.692;9.144;2023-02-24T09:33:25;16.70;97.20
2653;DHT22;1336;48.692;9.144;2023-02-24T09:34:17;16.70;97.20
2653;DHT22;1336;48.692;9.144;2023-02-24T09:35:09;16.60;97.20
2653;DHT22;1336;48.692;9.144;2023-02-24T09:36:14;16.40;97.20
2653;DHT22;1336;48.692;9.144;2023-02-24T09:37:10;16.20;97.20
2653;DHT22;1336;48.692;9.144;2023-02-24T09:38:15;16.10;97.20
2653;DHT22;1336;48.692;9.144;2023-02-24T09:39:06;16.00;97.20
2653;DHT22;1336;48.692;9.144;2023-02-24T09:40:04;15.90;97.20
2653;DHT22;1336;48.692;9.144;2023-02-24T09:41:33;15.90;97.20
2653;DHT22;1336;48.692;9.144;2023-02-24T09:42:42;15.90;97.20
2653;DHT22;1336;48.692;9.144;2023-02-24T09:43:37;15.70;97.20
2653;DHT22;1336;48.692;9.144;2023-02-24T09:44:35;15.60;97.20
2653;DHT22;1336;48.692;9.144;2023-02-24T09:45:27;15.50;97.20
2653;DHT22;1336;48.692;9.144;2023-02-24T09:46:22;15.30;97.20
2653;DHT22;1336;48.692;9.144;2023-02-24T09:47:16;15.20;97.20
2653;DHT22;1336;48.692;9.144;2023-02-24T09:48:26;15.20;97.20
2653;DHT22;1336;48.692;9.144;2023-02-24T09:49:21;15.10;97.20
2653;DHT22;1336;48.692;9.144;2023-02-24T09:50:20;15.10;97.20
2653;DHT22;1336;48.692;9.144;2023-02-24T09:51:21;15.00;97.20
2653;DHT22;1336;48.692;9.144;2023-02-24T09:52:13;15.00;97.20
2653;DHT22;1336;48.692;9.144;2023-02-24T09:53:11;15.00;97.20
2653;DHT22;1336;48.692;9.144;2023-02-24T09:54:11;15.00;97.20
2653;DHT22;1336;48.692;9.144;2023-02-24T09:55:14;14.90;97.20
2653;DHT22;1336;48.692;9.144;2023-02-24T09:56:18;14.80;97.20
2653;DHT22;1336;48.692;9.144;2023-02-24T09:57:16;14.80;97.20
2653;DHT22;1336;48.692;9.144;2023-02-24T09:58:19;14.70;97.20
2653;DHT22;1336;48.692;9.144;2023-02-24T09:59:18;14.70;97.20
2653;DHT22;1336;48.692;9.144;2023-02-24T10:00:18;14.60;97.20
2653;DHT22;1336;48.692;9.144;2023-02-24T10:01:23;14.60;97.20
2653;DHT22;1336;48.692;9.144;2023-02-24T10:02:32;14.40;97.20
2653;DHT22;1336;48.692;9.144;2023-02-24T10:03:27;14.30;97.20
2653;DHT22;1336;48.692;9.144;2023-02-24T10:04:41;14.10;97.20
2653;DHT22;1336;48.692;9.144;2023-02-24T10:05:45;13.90;97.20
2653;DHT22;1336;48.692;9.144;2023-02-24T10:06:40;13.80;97.20
2653;DHT22;1336;48.692;9.144;2023-02-24T10:07:35;13.70;97.20
2653;DHT22;1336;48.692;9.144;2023-02-24T10:08:33;13.70;97.20
2653;DHT22;1336;48.692;9.144;2023-02-24T10:09:31;13.60;97.20
2653;DHT22;1336;48.692;9.144;2023-02-24T10:10:26;13.70;97.20
2653;DHT22;1336;48.692;9.144;2023-02-24T10:11:19;13.70;97.20
2653;DHT22;1336;48.692;9.144;2023-02-24T10:12:26;13.70;97.20
2653;DHT22;1336;48.692;9.144;2023-02-24T10:13:22;13.70;97.20
2653;DHT22;1336;48.692;9.144;2023-02-24T10:14:26;13.70;97.20
2653;DHT22;1336;48.692;9.144;2023-02-24T10:15:22;13.70;97.20
2653;DHT22;1336;48.692;9.144;2023-02-24T10:16:39;13.70;97.20
2653;DHT22;1336;48.692;9.144;2023-02-24T10:17:35;13.80;97.20
2653;DHT22;1336;48.692;9.144;2023-02-24T10:18:32;13.80;97.20
2653;DHT22;1336;48.692;9.144;2023-02-24T10:19:28;13.80;97.20
2653;DHT22;1336;48.692;9.144;2023-02-24T10:20:21;13.80;97.20
2653;DHT22;1336;48.692;9.144;2023-02-24T10:21:34;13.80;97.20
2653;DHT22;1336;48.692;9.144;2023-02-24T10:22:43;13.90;97.20
2653;DHT22;1336;48.692;9.144;2023-02-24T10:23:51;14.00;97.20
2653;DHT22;1336;48.692;9.144;2023-02-24T10:24:48;14.00;97.20
2653;DHT22;1336;48.692;9.144;2023-02-24T10:25:53;14.00;97.20
2653;DHT22;1336;48.692;9.144;2023-02-24T10:26:50;14.00;97.20
2653;DHT22;1336;48.692;9.144;2023-02-24T10:27:51;14.00;97.20
2653;DHT22;1336;48.692;9.144;2023-02-24T10:28:51;14.10;97.20
2653;DHT22;1336;48.692;9.144;2023-02-24T10:29:53;14.10;97.20
2653;DHT22;1336;48.692;9.144;2023-02-24T10:31:02;14.10;97.20
2653;DHT22;1336;48.692;9.144;2023-02-24T10:32:16;14.20;97.20
2653;DHT22;1336;48.692;9.144;2023-02-24T10:33:27;14.20;97.20
2653;DHT22;1336;48.692;9.144;2023-02-24T10:34:20;14.20;97.20
2653;DHT22;1336;48.692;9.144;2023-02-24T10:35:18;14.30;97.20
2653;DHT22;1336;48.692;9.144;2023-02-24T10:36:13;14.40;97.20
2653;DHT22;1336;48.692;9.144;2023-02-24T10:37:13;14.50;97.20
2653;DHT22;1336;48.692;9.144;2023-02-24T10:38:08;14.50;97.20
2653;DHT22;1336;48.692;9.144;2023-02-24T10:39:01;14.60;97.20
2653;DHT22;1336;48.692;9.144;2023-02-24T10:39:59;14.70;97.20
2653;DHT22;1336;48.692;9.144;2023-02-24T10:40:59;14.80;97.20
2653;DHT22;1336;48.692;9.144;2023-02-24T10:41:57;14.80;97.20
2653;DHT22;1336;48.692;9.144;2023-02-24T10:43:05;14.80;97.20
2653;DHT22;1336;48.692;9.144;2023-02-24T10:43:59;14.80;97.20
2653;DHT22;1336;48.692;9.144;2023-02-24T10:45:05;14.70;97.20
2653;DHT22;1336;48.692;9.144;2023-02-24T10:46:01;14.60;97.20
2653;DHT22;1336;48.692;9.144;2023-02-24T10:47:09;14.60;97.20
2653;DHT22;1336;48.692;9.144;2023-02-24T10:48:05;14.50;97.20
2653;DHT22;1336;48.692;9.144;2023-02-24T10:48:58;14.50;97.20
2653;DHT22;1336;48.692;9.144;2023-02-24T10:49:50;14.50;97.20
2653;DHT22;1336;48.692;9.144;2023-02-24T10:50:47;14.40;97.20
2653;DHT22;1336;48.692;9.144;2023-02-24T10:51:40;14.40;97.20
2653;DHT22;1336;48.692;9.144;2023-02-24T10:52:35;14.40;97.20
2653;DHT22;1336;48.692;9.144;2023-02-24T10:53:26;14.30;97.20
2653;DHT22;1336;48.692;9.144;2023-02-24T10:54:26;14.20;97.20
2653;DHT22;1336;48.692;9.144;2023-02-24T10:55:37;14.10;97.20
2653;DHT22;1336;48.692;9.144;2023-02-24T10:56:43;14.00;97.20
2653;DHT22;1336;48.692;9.144;2023-02-24T10:57:44;14.00;97.20
2653;DHT22;1336;48.692;9.144;2023-02-24T10:58:41;13.80;97.20
2653;DHT22;1336;48.692;9.144;2023-02-24T10:59:48;13.80;97.20
2653;DHT22;1336;48.692;9.144;2023-02-24T11:01:12;13.80;97.20
2653;DHT22;1336;48.692;9.144;2023-02-24T11:02:17;13.70;97.20
2653;DHT22;1336;48.692;9.144;2023-02-24T11:03:21;13.70;97.20
2653;DHT22;1336;48.692;9.144;2023-02-24T11:04:31;13.70;97.20
2653;DHT22;1336;48.692;9.144;2023-02-24T11:05:44;13.70;97.20
2653;DHT22;1336;48.692;9.144;2023-02-24T11:07:02;13.60;97.20
2653;DHT22;1336;48.692;9.144;2023-02-24T11:08:13;13.60;97.20
2653;DHT22;1336;48.692;9.144;2023-02-24T11:09:26;13.50;97.20
2653;DHT22;1336;48.692;9.144;2023-02-24T11:10:24;13.50;97.20
2653;DHT22;1336;48.692;9.144;2023-02-24T11:11:18;13.40;97.20
2653;DHT22;1336;48.692;9.144;2023-02-24T11:12:19;13.30;97.20
2653;DHT22;1336;48.692;9.144;2023-02-24T11:13:29;13.30;97.20
2653;DHT22;1336;48.692;9.144;2023-02-24T11:14:47;13.20;97.20
2653;DHT22;1336;48.692;9.144;2023-02-24T11:15:57;13.10;97.20
2653;DHT22;1336;48.692;9.144;2023-02-24T11:17:18;13.10;97.20
2653;DHT22;1336;48.692;9.144;2023-02-24T11:18:16;13.00;97.20
2653;DHT22;1336;48.692;9.144;2023-02-24T11:19:10;13.00;97.20
2653;DHT22;1336;48.692;9.144;2023-02-24T11:20:04;13.00;97.20
2653;DHT22;1336;48.692;9.144;2023-02-24T11:21:01;13.00;97.20
2653;DHT22;1336;48.692;9.144;2023-02-24T11:21:55;12.90;97.20
2653;DHT22;1336;48.692;9.144;2023-02-24T11:22:48;12.90;97.20
2653;DHT22;1336;48.692;9.144;2023-02-24T11:23:49;12.90;97.20
2653;DHT22;1336;48.692;9.144;2023-02-24T11:24:42;12.80;97.20
2653;DHT22;1336;48.692;9.144;2023-02-24T11:25:36;12.80;97.20
2653;DHT22;1336;48.692;9.144;2023-02-24T11:26:33;12.70;97.20
2653;DHT22;1336;48.692;9.144;2023-02-24T11:27:26;12.70;97.20
2653;DHT22;1336;48.692;9.144;2023-02-24T11:28:30;12.60;97.20
2653;DHT22;1336;48.692;9.144;2023-02-24T11:29:54;12.60;97.20
2653;DHT22;1336;48.692;9.144;2023-02-24T11:30:54;12.60;97.20
2653;DHT22;1336;48.692;9.144;2023-02-24T11:32:09;12.50;97.20
2653;DHT22;1336;48.692;9.144;2023-02-24T11:33:12;12.40;97.20
2653;DHT22;1336;48.692;9.144;2023-02-24T11:34:08;12.40;97.20
2653;DHT22;1336;48.692;9.144;2023-02-24T11:35:03;12.30;97.20
2653;DHT22;1336;48.692;9.144;2023-02-24T11:36:02;12.30;97.20
2653;DHT22;1336;48.692;9.144;2023-02-24T11:37:02;12.30;97.20
2653;DHT22;1336;48.692;9.144;2023-02-24T11:38:02;12.30;97.20
2653;DHT22;1336;48.692;9.144;2023-02-24T11:39:07;12.30;97.20
2653;DHT22;1336;48.692;9.144;2023-02-24T11:40:10;12.30;97.20
2653;DHT22;1336;48.692;9.144;2023-02-24T11:41:06;12.30;97.20
2653;DHT22;1336;48.692;9.144;2023-02-24T11:42:01;12.30;97.20
2653;DHT22;1336;48.692;9.144;2023-02-24T11:42:57;12.30;97.20
2653;DHT22;1336;48.692;9.144;2023-02-24T11:43:55;12.30;97.20
2653;DHT22;1336;48.692;9.144;2023-02-24T11:44:51;12.30;97.20
2653;DHT22;1336;48.692;9.144;2023-02-24T11:45:47;12.40;97.20
2653;DHT22;1336;48.692;9.144;2023-02-24T11:46:42;12.40;97.20
2653;DHT22;1336;48.692;9.144;2023-02-24T11:47:39;12.40;97.20
2653;DHT22;1336;48.692;9.144;2023-02-24T11:48:36;12.40;97.20
2653;DHT22;1336;48.692;9.144;2023-02-24T11:49:30;12.50;97.20
2653;DHT22;1336;48.692;9.144;2023-02-24T11:50:37;12.50;97.20
2653;DHT22;1336;48.692;9.144;2023-02-24T11:51:35;12.60;97.20
2653;DHT22;1336;48.692;9.144;2023-02-24T11:52:30;12.60;97.20
2653;DHT22;1336;48.692;9.144;2023-02-24T11:53:27;12.60;97.20
2653;DHT22;1336;48.692;9.144;2023-02-24T11:54:21;12.70;97.20
2653;DHT22;1336;48.692;9.144;2023-02-24T11:55:22;12.70;97.20
2653;DHT22;1336;48.692;9.144;2023-02-24T11:56:18;12.70;97.20
2653;DHT22;1336;48.692;9.144;2023-02-24T11:57:14;12.80;97.20
2653;DHT22;1336;48.692;9.144;2023-02-24T11:58:13;12.80;97.20
2653;DHT22;1336;48.692;9.144;2023-02-24T11:59:11;12.90;97.20
2653;DHT22;1336;48.692;9.144;2023-02-24T12:00:06;12.90;97.20
2653;DHT22;1336;48.692;9.144;2023-02-24T12:01:09;13.00;97.20
2653;DHT22;1336;48.692;9.144;2023-02-24T12:02:15;13.00;97.20
2653;DHT22;1336;48.692;9.144;2023-02-24T12:03:14;13.20;97.20
2653;DHT22;1336;48.692;9.144;2023-02-24T12:04:12;13.30;97.20
2653;DHT22;1336;48.692;9.144;2023-02-24T12:05:13;13.50;97.20
2653;DHT22;1336;48.692;9.144;2023-02-24T12:06:11;13.70;97.20
2653;DHT22;1336;48.692;9.144;2023-02-24T12:07:06;13.80;97.20
2653;DHT22;1336;48.692;9.144;2023-02-24T12:08:04;14.00;97.20
2653;DHT22;1336;48.692;9.144;2023-02-24T12:09:01;14.10;97.20
2653;DHT22;1336;48.692;9.144;2023-02-24T12:10:03;14.20;97.20